Time;durP1;ratioP1;P1;durP2;ratioP2;P2;SDS_P1;SDS_P2;PMS_P1;PMS_P2;Temp;Humidity;BMP_temperature;BMP_pressure;BME280_temperature;BME280_humidity;BME280_pressure;Samples;Min_cycle;Max_cycle;Signal;HPM_P1;HPM_P2
2022/10/26 00:01:14;;;;;;;9.85;2.75;;;;;;;10.86;100.00;97344.31;5065197;28;20083;-59
2022/10/26 00:03:42;;;;;;;5.85;2.30;;;;;;;10.84;100.00;97343.75;5066184;28;20440;-59
2022/10/26 00:06:12;;;;;;;7.55;2.40;;;;;;;10.60;100.00;97349.44;5055407;28;20109;-59
2022/10/26 00:08:39;;;;;;;8.18;2.70;;;;;;;10.60;100.00;97345.91;5049328;28;20120;-59
2022/10/26 00:11:06;;;;;;;5.00;2.50;;;;;;;10.59;100.00;97350.53;5049478;28;20052;-59
2022/10/26 00:13:34;;;;;;;5.97;2.28;;;;;;;10.57;100.00;97349.16;5068314;28;20504;-59
2022/10/26 00:16:06;;;;;;;7.75;2.72;;;;;;;10.58;100.00;97348.88;5069455;28;20064;-59
2022/10/26 00:18:33;;;;;;;5.15;2.70;;;;;;;10.64;100.00;97344.34;5068975;28;20090;-59
2022/10/26 00:21:04;;;;;;;9.82;3.15;;;;;;;10.70;100.00;97347.91;5057247;28;20091;-58
2022/10/26 00:23:31;;;;;;;6.47;2.65;;;;;;;10.77;100.00;97338.53;5049694;28;20073;-59
2022/10/26 00:25:58;;;;;;;5.80;2.80;;;;;;;10.86;100.00;97338.06;5049122;28;20411;-59
2022/10/26 00:28:25;;;;;;;7.88;2.65;;;;;;;10.92;100.00;97339.78;5049053;28;20515;-58
2022/10/26 00:30:51;;;;;;;6.65;2.78;;;;;;;11.00;100.00;97342.03;5063442;28;20132;-59
2022/10/26 00:33:18;;;;;;;8.52;3.25;;;;;;;11.09;100.00;97338.88;5067793;28;20692;-59
2022/10/26 00:35:52;;;;;;;11.25;2.70;;;;;;;11.14;100.00;97338.91;5068472;28;20044;-58
2022/10/26 00:38:19;;;;;;;8.32;2.67;;;;;;;11.14;100.00;97333.47;5068663;28;20680;-57
2022/10/26 00:40:46;;;;;;;6.50;2.80;;;;;;;11.17;100.00;97336.50;5068495;28;20075;-59
2022/10/26 00:43:18;;;;;;;8.63;3.40;;;;;;;11.22;100.00;97335.72;5068854;28;20048;-58
2022/10/26 00:45:46;;;;;;;8.18;3.00;;;;;;;11.21;100.00;97336.81;5069557;28;20079;-58
2022/10/26 00:48:23;;;;;;;8.52;3.13;;;;;;;11.24;100.00;97335.47;5069196;28;20115;-58
2022/10/26 00:50:53;;;;;;;14.05;2.95;;;;;;;11.23;100.00;97339.25;5058046;28;20186;-59
2022/10/26 00:53:19;;;;;;;7.07;2.40;;;;;;;11.24;100.00;97335.47;5052464;28;20487;-57
2022/10/26 00:55:48;;;;;;;4.82;2.53;;;;;;;11.27;100.00;97340.38;5068284;28;20123;-58
2022/10/26 00:58:16;;;;;;;5.40;3.10;;;;;;;11.32;100.00;97335.00;5068862;28;20503;-59
2022/10/26 01:00:43;;;;;;;6.72;2.63;;;;;;;11.40;100.00;97336.44;5067601;28;20561;-59
2022/10/26 01:03:10;;;;;;;6.13;2.47;;;;;;;11.42;100.00;97339.69;5050013;28;20033;-59
2022/10/26 01:05:41;;;;;;;7.75;2.80;;;;;;;11.43;100.00;97333.19;5060284;28;20047;-59
2022/10/26 01:08:08;;;;;;;8.70;2.97;;;;;;;11.43;100.00;97336.72;5068678;28;20158;-59
2022/10/26 01:10:37;;;;;;;5.45;2.42;;;;;;;11.40;100.00;97325.56;5068639;28;20134;-59
2022/10/26 01:13:05;;;;;;;8.75;2.47;;;;;;;11.39;100.00;97330.16;5068456;28;20569;-59
2022/10/26 01:16:00;;;;;;;6.00;2.33;;;;;;;11.41;100.00;97321.78;5068811;28;20044;-58
2022/10/26 01:18:34;;;;;;;6.55;2.33;;;;;;;11.42;100.00;97318.00;5063960;28;20091;-58
2022/10/26 01:21:26;;;;;;;6.10;2.50;;;;;;;11.42;100.00;97312.56;5065525;28;20044;-59
2022/10/26 01:24:08;;;;;;;5.57;2.28;;;;;;;11.41;100.00;97309.06;5040435;28;20084;-58
2022/10/26 01:27:00;;;;;;;10.80;2.55;;;;;;;11.38;100.00;97309.56;5051536;28;20090;-59
2022/10/26 01:29:34;;;;;;;6.47;2.40;;;;;;;11.37;100.00;97298.97;5067635;28;20041;-58
2022/10/26 01:32:13;;;;;;;8.15;2.95;;;;;;;11.38;100.00;97311.44;5068033;28;20051;-59
2022/10/26 01:35:02;;;;;;;7.68;2.83;;;;;;;11.36;100.00;97303.59;5067732;28;20044;-59
2022/10/26 01:37:34;;;;;;;6.35;2.38;;;;;;;11.38;100.00;97293.31;5052430;28;20127;-59
2022/10/26 01:40:22;;;;;;;4.93;2.10;;;;;;;11.41;100.00;97294.69;5048000;28;20344;-58
2022/10/26 01:42:53;;;;;;;6.18;2.40;;;;;;;11.39;100.00;97292.22;5060618;28;20325;-59
2022/10/26 01:45:20;;;;;;;7.72;2.50;;;;;;;11.36;100.00;97290.06;5067062;28;20079;-59
2022/10/26 01:47:48;;;;;;;6.18;2.50;;;;;;;11.36;100.00;97283.81;5047331;28;20128;-59
2022/10/26 01:50:17;;;;;;;7.47;2.80;;;;;;;11.38;100.00;97293.31;5050522;28;20234;-59
2022/10/26 01:52:43;;;;;;;8.77;2.60;;;;;;;11.37;100.00;97283.53;5067349;28;20072;-59
2022/10/26 01:55:34;;;;;;;7.90;2.22;;;;;;;11.37;100.00;97271.88;5067661;28;20127;-59
2022/10/26 01:58:12;;;;;;;5.50;2.58;;;;;;;11.36;100.00;97278.38;5066963;28;20523;-59
2022/10/26 02:00:49;;;;;;;6.22;2.40;;;;;;;11.35;100.00;97280.25;5059700;28;20051;-59
2022/10/26 02:03:37;;;;;;;4.05;2.45;;;;;;;11.35;100.00;97268.63;5065619;28;20040;-59
2022/10/26 02:06:09;;;;;;;6.68;2.80;;;;;;;11.34;100.00;97267.78;5067187;28;20068;-59
2022/10/26 02:09:04;;;;;;;5.15;2.45;;;;;;;11.38;100.00;97270.78;5067320;28;20094;-59
2022/10/26 02:11:40;;;;;;;7.68;2.45;;;;;;;11.34;100.00;97269.66;5066971;28;20044;-59
2022/10/26 02:14:13;;;;;;;6.82;2.63;;;;;;;11.26;100.00;97282.66;5067025;28;20044;-59
2022/10/26 02:16:56;;;;;;;5.97;2.40;;;;;;;11.22;100.00;97294.25;5067124;28;20032;-61
2022/10/26 02:19:37;;;;;;;7.00;2.67;;;;;;;11.10;100.00;97300.69;5066420;28;20082;-59
2022/10/26 02:22:23;;;;;;;6.25;2.65;;;;;;;11.13;100.00;97285.78;5065887;28;20072;-59
2022/10/26 02:24:52;;;;;;;6.88;2.28;;;;;;;11.13;100.00;97288.50;5067172;28;20515;-59
2022/10/26 02:27:33;;;;;;;7.70;2.40;;;;;;;11.19;100.00;97295.59;5066212;28;20044;-59
2022/10/26 02:30:01;;;;;;;9.30;2.80;;;;;;;11.25;100.00;97299.16;5066188;28;20086;-59
2022/10/26 02:32:32;;;;;;;6.53;2.60;;;;;;;11.34;100.00;97296.78;5066594;28;20123;-59
2022/10/26 02:35:02;;;;;;;5.95;2.53;;;;;;;11.33;100.00;97301.41;5066590;28;20076;-57
2022/10/26 02:37:30;;;;;;;9.57;3.95;;;;;;;11.34;100.00;97307.63;5066499;28;20146;-59
2022/10/26 02:40:01;;;;;;;6.57;2.42;;;;;;;11.39;100.00;97305.78;5066764;28;20053;-59
2022/10/26 02:42:28;;;;;;;6.00;2.80;;;;;;;11.57;100.00;97307.28;5066650;28;20048;-59
2022/10/26 02:45:02;;;;;;;4.32;2.53;;;;;;;11.64;100.00;97303.53;5066260;28;20076;-59
2022/10/26 02:47:28;;;;;;;5.10;2.00;;;;;;;11.70;100.00;97297.06;5063251;28;20072;-57
2022/10/26 02:49:55;;;;;;;4.93;2.30;;;;;;;11.69;100.00;97303.56;5064633;28;20091;-59
2022/10/26 02:52:30;;;;;;;5.32;2.10;;;;;;;11.61;100.00;97290.50;5065953;28;20071;-59
2022/10/26 02:55:29;;;;;;;6.65;2.40;;;;;;;11.63;100.00;97308.13;5066801;28;20083;-58
2022/10/26 02:58:00;;;;;;;4.80;2.20;;;;;;;11.67;100.00;97303.00;5062121;28;20076;-59
2022/10/26 03:00:28;;;;;;;4.65;2.20;;;;;;;11.69;100.00;97309.00;5066476;28;20150;-58
2022/10/26 03:02:57;;;;;;;4.32;2.05;;;;;;;11.70;100.00;97307.91;5065729;28;20097;-58
2022/10/26 03:05:26;;;;;;;8.98;2.90;;;;;;;11.65;100.00;97311.38;5066419;28;20298;-59
2022/10/26 03:07:54;;;;;;;8.25;2.50;;;;;;;11.63;100.00;97315.44;5065387;28;20043;-58
2022/10/26 03:10:21;;;;;;;7.22;2.50;;;;;;;11.68;100.00;97320.91;5065880;28;20045;-58
2022/10/26 03:12:48;;;;;;;5.57;2.45;;;;;;;11.74;100.00;97321.75;5065971;28;20131;-59
2022/10/26 03:15:15;;;;;;;4.00;2.22;;;;;;;11.78;100.00;97323.69;5065850;28;20543;-57
2022/10/26 03:17:41;;;;;;;5.45;1.92;;;;;;;11.86;100.00;97322.38;5066141;28;20128;-59
2022/10/26 03:20:09;;;;;;;6.47;3.15;;;;;;;11.91;100.00;97327.03;5065483;28;20147;-58
2022/10/26 03:22:35;;;;;;;7.72;2.22;;;;;;;11.99;100.00;97323.84;5065830;28;20044;-59
2022/10/26 03:25:03;;;;;;;4.22;1.80;;;;;;;12.02;100.00;97326.00;5065508;28;20127;-59
2022/10/26 03:27:29;;;;;;;4.78;1.63;;;;;;;12.05;100.00;97327.41;5062863;28;20037;-59
2022/10/26 03:29:56;;;;;;;4.47;1.63;;;;;;;12.06;100.00;97331.75;5065824;28;20094;-59
2022/10/26 03:32:23;;;;;;;2.83;1.50;;;;;;;12.07;100.00;97327.97;5065787;28;20127;-58
2022/10/26 03:34:49;;;;;;;5.13;1.90;;;;;;;12.19;100.00;97323.16;5065992;28;20442;-59
2022/10/26 03:37:16;;;;;;;4.32;1.50;;;;;;;12.26;100.00;97325.63;5065761;28;20515;-60
2022/10/26 03:39:42;;;;;;;3.53;1.35;;;;;;;12.43;100.00;97324.63;5065667;28;20055;-59
2022/10/26 03:42:09;;;;;;;6.40;1.58;;;;;;;12.51;99.95;97320.56;5059974;28;20071;-59
2022/10/26 03:44:35;;;;;;;10.75;3.10;;;;;;;12.60;99.22;97319.78;5066203;28;20124;-59
2022/10/26 03:47:02;;;;;;;4.85;1.80;;;;;;;12.61;98.87;97321.41;5065626;28;20495;-60
2022/10/26 03:49:28;;;;;;;5.10;1.77;;;;;;;12.58;99.57;97321.97;5065193;28;20115;-57
2022/10/26 03:51:54;;;;;;;7.15;2.75;;;;;;;12.59;98.78;97322.75;5065296;28;20252;-57
2022/10/26 03:54:21;;;;;;;6.45;2.20;;;;;;;12.51;99.99;97323.28;5065327;28;20045;-59
2022/10/26 03:56:48;;;;;;;4.00;1.50;;;;;;;12.49;99.91;97331.69;5066094;28;20075;-59
2022/10/26 03:59:20;;;;;;;4.05;1.80;;;;;;;12.50;99.41;97330.63;5065888;28;20047;-60
2022/10/26 04:01:46;;;;;;;4.70;1.63;;;;;;;12.46;99.29;97322.16;5065094;28;20596;-59
2022/10/26 04:04:13;;;;;;;3.25;1.60;;;;;;;12.61;97.17;97318.69;5064723;28;20063;-59
2022/10/26 04:06:40;;;;;;;5.07;2.42;;;;;;;12.51;98.88;97320.56;5065392;28;20068;-59
2022/10/26 04:09:07;;;;;;;7.60;2.47;;;;;;;12.53;98.28;97313.78;5065585;28;20049;-59
2022/10/26 04:11:33;;;;;;;3.65;1.63;;;;;;;12.49;99.18;97315.38;5064651;28;20519;-59
2022/10/26 04:14:00;;;;;;;8.13;1.65;;;;;;;12.49;98.98;97313.50;5065977;28;20453;-59
2022/10/26 04:16:26;;;;;;;5.40;1.70;;;;;;;12.46;99.38;97318.66;5064742;28;20045;-59
2022/10/26 04:18:58;;;;;;;6.25;1.75;;;;;;;12.50;98.83;97314.34;5064897;28;20318;-59
2022/10/26 04:21:25;;;;;;;5.18;2.17;;;;;;;12.45;100.00;97306.16;5065134;28;20569;-59
2022/10/26 04:23:51;;;;;;;5.18;1.70;;;;;;;12.46;99.73;97316.75;5065541;28;20043;-59
2022/10/26 04:26:18;;;;;;;3.55;1.67;;;;;;;12.47;99.64;97312.13;5065378;28;20052;-59
2022/10/26 04:28:44;;;;;;;6.90;2.45;;;;;;;12.48;99.28;97311.88;5065503;28;20075;-59
2022/10/26 04:31:11;;;;;;;3.65;1.77;;;;;;;12.46;99.90;97303.16;5064850;28;20068;-59
2022/10/26 04:33:37;;;;;;;7.10;1.77;;;;;;;12.49;99.74;97310.78;5061399;28;20123;-58
2022/10/26 04:36:04;;;;;;;4.25;1.67;;;;;;;12.46;100.00;97318.66;5065548;28;20395;-59
2022/10/26 04:38:30;;;;;;;4.65;1.92;;;;;;;12.46;100.00;97313.22;5065108;28;20483;-59
2022/10/26 04:40:57;;;;;;;6.07;2.63;;;;;;;12.46;100.00;97303.16;5064335;28;20060;-58
2022/10/26 04:43:23;;;;;;;3.35;1.60;;;;;;;12.47;100.00;97304.00;5064963;28;20114;-59
2022/10/26 04:45:54;;;;;;;3.72;1.52;;;;;;;12.60;99.21;97311.63;5064352;28;20044;-61
2022/10/26 04:48:20;;;;;;;4.53;1.58;;;;;;;12.72;97.76;97311.41;5061553;28;20044;-59
2022/10/26 04:50:47;;;;;;;4.78;1.85;;;;;;;12.72;97.72;97310.59;5060456;28;20446;-59
2022/10/26 04:53:13;;;;;;;3.00;1.50;;;;;;;12.81;97.35;97313.59;5066019;28;20051;-59
2022/10/26 04:55:40;;;;;;;4.25;2.40;;;;;;;12.76;97.89;97308.97;5066113;28;20123;-59
2022/10/26 04:58:07;;;;;;;4.88;1.85;;;;;;;12.69;98.39;97302.97;5065784;28;20076;-59
2022/10/26 05:00:33;;;;;;;5.55;1.67;;;;;;;12.68;98.76;97309.50;5057941;28;20387;-59
2022/10/26 05:03:01;;;;;;;9.23;1.67;;;;;;;12.67;99.26;97316.00;5066104;28;20051;-59
2022/10/26 05:05:29;;;;;;;4.53;2.13;;;;;;;12.67;99.21;97321.41;5065717;28;20052;-59
2022/10/26 05:07:56;;;;;;;4.72;1.60;;;;;;;12.70;99.19;97326.34;5066126;28;20082;-58
2022/10/26 05:10:24;;;;;;;6.43;2.22;;;;;;;12.66;99.46;97314.38;5066205;28;20044;-59
2022/10/26 05:12:55;;;;;;;6.82;2.15;;;;;;;12.57;100.00;97314.88;5065559;28;20129;-58
2022/10/26 05:15:22;;;;;;;4.90;2.00;;;;;;;12.66;99.63;97317.09;5065922;28;20048;-59
2022/10/26 05:17:59;;;;;;;3.50;1.48;;;;;;;12.73;99.20;97318.47;5066288;28;20068;-59
2022/10/26 05:20:29;;;;;;;6.25;1.60;;;;;;;12.72;99.58;97326.91;5064612;28;20524;-59
2022/10/26 05:22:57;;;;;;;5.03;1.70;;;;;;;12.79;99.06;97327.44;5064800;28;20601;-58
2022/10/26 05:25:24;;;;;;;4.63;1.80;;;;;;;12.86;98.64;97327.19;5064277;28;20132;-58
2022/10/26 05:27:51;;;;;;;5.53;2.33;;;;;;;12.79;99.65;97334.78;5065897;28;20073;-58
2022/10/26 05:30:17;;;;;;;4.35;1.55;;;;;;;12.74;99.69;97341.84;5065289;28;20064;-59
2022/10/26 05:32:44;;;;;;;6.97;1.90;;;;;;;12.74;99.85;97344.56;5061976;28;20513;-59
2022/10/26 05:35:10;;;;;;;7.40;1.83;;;;;;;12.74;100.00;97343.72;5064836;28;20091;-59
2022/10/26 05:37:37;;;;;;;4.28;1.70;;;;;;;12.76;99.85;97341.59;5056059;28;20040;-58
2022/10/26 05:40:04;;;;;;;7.82;2.45;;;;;;;12.77;100.00;97348.63;5060137;28;20134;-59
2022/10/26 05:42:30;;;;;;;4.90;1.55;;;;;;;12.71;100.00;97349.69;5060379;28;20037;-59
2022/10/26 05:44:57;;;;;;;4.85;2.05;;;;;;;12.70;100.00;97351.59;5061643;28;20044;-58
2022/10/26 05:47:23;;;;;;;3.50;1.83;;;;;;;12.73;100.00;97356.53;5065833;28;20076;-59
2022/10/26 05:49:50;;;;;;;6.88;1.60;;;;;;;12.72;100.00;97354.88;5064461;28;20058;-59
2022/10/26 05:52:16;;;;;;;2.95;1.42;;;;;;;12.71;100.00;97344.25;5065171;28;20099;-59
2022/10/26 05:54:42;;;;;;;6.10;1.70;;;;;;;12.72;100.00;97348.63;5057595;28;20505;-59
2022/10/26 05:57:11;;;;;;;7.63;2.00;;;;;;;12.75;100.00;97357.06;5062878;28;20316;-59
2022/10/26 05:59:38;;;;;;;4.50;2.10;;;;;;;12.74;100.00;97363.56;5057947;28;20262;-59
2022/10/26 06:02:23;;;;;;;6.00;1.63;;;;;;;12.82;100.00;97370.38;5055416;28;20086;-59
2022/10/26 06:04:51;;;;;;;5.30;1.90;;;;;;;12.91;100.00;97378.03;5057459;28;20082;-59
2022/10/26 06:07:21;;;;;;;5.63;1.70;;;;;;;12.96;100.00;97380.75;5055286;28;20043;-59
2022/10/26 06:09:48;;;;;;;3.22;1.48;;;;;;;12.91;100.00;97381.56;5054323;28;20127;-58
2022/10/26 06:12:15;;;;;;;3.92;1.77;;;;;;;12.85;100.00;97390.78;5055144;28;20043;-58
2022/10/26 06:14:45;;;;;;;3.13;1.33;;;;;;;12.82;100.00;97400.28;5056442;28;20120;-58
2022/10/26 06:17:34;;;;;;;6.55;2.30;;;;;;;12.77;100.00;97400.25;5056393;28;20402;-59
2022/10/26 06:20:15;;;;;;;5.40;1.58;;;;;;;12.80;100.00;97413.31;5055961;28;20123;-59
2022/10/26 06:23:11;;;;;;;8.70;1.70;;;;;;;12.86;100.00;97420.41;5056136;28;20477;-59
2022/10/26 06:26:02;;;;;;;7.45;2.00;;;;;;;12.83;100.00;97420.91;5055129;28;20437;-59
2022/10/26 06:29:02;;;;;;;4.90;1.60;;;;;;;12.83;100.00;97420.13;5056081;28;20036;-59
2022/10/26 06:31:29;;;;;;;3.45;1.17;;;;;;;12.82;100.00;97429.34;5053551;28;20083;-59
2022/10/26 06:33:58;;;;;;;5.90;3.10;;;;;;;12.85;100.00;97428.81;5052429;28;20053;-59
2022/10/26 06:36:27;;;;;;;11.60;2.35;;;;;;;12.84;100.00;97438.88;5064822;28;20051;-59
2022/10/26 06:39:15;;;;;;;6.28;2.20;;;;;;;12.89;100.00;97435.34;5064565;28;20352;-58
2022/10/26 06:41:42;;;;;;;6.00;1.63;;;;;;;13.02;100.00;97436.78;5062645;28;20159;-59
2022/10/26 06:44:14;;;;;;;7.30;2.53;;;;;;;13.25;97.65;97431.94;5064386;28;20053;-59
2022/10/26 06:46:59;;;;;;;3.78;1.50;;;;;;;13.33;96.82;97439.56;5064558;28;20472;-59
2022/10/26 06:49:35;;;;;;;5.22;1.42;;;;;;;13.36;96.06;97435.50;5061309;28;20704;-59
2022/10/26 06:52:17;;;;;;;5.70;1.55;;;;;;;13.38;96.24;97445.03;5062890;28;20126;-59
2022/10/26 06:54:48;;;;;;;5.88;2.13;;;;;;;13.44;95.74;97448.56;5060194;28;20805;-58
2022/10/26 06:57:17;;;;;;;6.00;2.72;;;;;;;13.50;95.19;97444.00;5062205;28;20127;-59
2022/10/26 06:59:51;;;;;;;6.75;1.50;;;;;;;13.45;95.37;97439.31;5063330;28;20658;-59
2022/10/26 07:02:19;;;;;;;4.88;1.60;;;;;;;13.52;95.26;97441.81;5059887;28;20198;-57
2022/10/26 07:04:46;;;;;;;7.38;1.50;;;;;;;13.50;95.67;97447.50;5064505;28;20714;-57
2022/10/26 07:07:16;;;;;;;3.30;1.70;;;;;;;13.53;95.71;97441.53;5063626;28;20040;-59
2022/10/26 07:09:43;;;;;;;3.90;1.52;;;;;;;13.53;95.65;97452.44;5062754;28;20129;-58
2022/10/26 07:12:09;;;;;;;5.28;2.00;;;;;;;13.57;95.68;97455.44;5063518;28;20136;-59
2022/10/26 07:14:36;;;;;;;2.95;1.63;;;;;;;13.60;95.24;97460.31;5062528;28;20068;-59
2022/10/26 07:17:04;;;;;;;5.38;1.70;;;;;;;13.61;95.15;97463.88;5063757;28;20127;-59
2022/10/26 07:19:30;;;;;;;6.57;1.67;;;;;;;13.71;94.55;97465.81;5062911;28;20106;-59
2022/10/26 07:22:00;;;;;;;6.20;1.50;;;;;;;13.66;96.15;97463.88;5063548;28;20423;-59
2022/10/26 07:24:27;;;;;;;7.00;1.90;;;;;;;13.59;96.61;97469.59;5062953;28;20059;-58
2022/10/26 07:26:56;;;;;;;5.78;1.70;;;;;;;13.51;97.54;97479.09;5052687;28;20076;-59
2022/10/26 07:29:23;;;;;;;9.32;1.90;;;;;;;13.55;97.80;97481.25;5063340;28;20495;-59
2022/10/26 07:31:51;;;;;;;3.38;1.60;;;;;;;13.44;98.20;97472.22;5062705;28;20445;-59
2022/10/26 07:34:22;;;;;;;5.38;1.50;;;;;;;13.44;98.54;97485.81;5060278;28;20036;-60
2022/10/26 07:36:50;;;;;;;5.90;1.70;;;;;;;13.37;99.48;97478.75;5063672;28;20472;-57
2022/10/26 07:39:16;;;;;;;3.85;1.55;;;;;;;13.34;99.68;97476.56;5063694;28;20068;-58
2022/10/26 07:41:44;;;;;;;9.50;2.35;;;;;;;13.33;99.83;97480.38;5058745;28;20071;-59
2022/10/26 07:44:11;;;;;;;4.47;2.00;;;;;;;13.32;100.00;97476.03;5064387;28;20308;-59
2022/10/26 07:46:37;;;;;;;6.68;2.00;;;;;;;13.41;99.67;97481.75;5065342;28;20102;-57
2022/10/26 07:49:04;;;;;;;5.10;1.80;;;;;;;13.45;99.21;97479.31;5065511;28;20111;-58
2022/10/26 07:51:30;;;;;;;6.55;2.35;;;;;;;13.54;98.68;97485.91;5064818;28;20310;-58
2022/10/26 07:53:56;;;;;;;8.55;2.42;;;;;;;13.62;98.68;97489.97;5064033;28;20071;-59
2022/10/26 07:56:23;;;;;;;6.13;2.00;;;;;;;13.66;98.29;97482.91;5062187;28;20562;-59
2022/10/26 07:58:53;;;;;;;7.88;2.20;;;;;;;13.70;98.39;97494.91;5065240;28;20072;-59
2022/10/26 08:01:20;;;;;;;9.73;1.92;;;;;;;13.74;98.01;97489.72;5065109;28;20476;-58
2022/10/26 08:03:50;;;;;;;6.63;1.60;;;;;;;13.79;97.50;97492.47;5065398;28;20405;-58
2022/10/26 08:06:17;;;;;;;4.10;1.98;;;;;;;13.82;97.46;97500.09;5065718;28;20651;-58
2022/10/26 08:08:45;;;;;;;8.57;1.85;;;;;;;13.88;97.05;97498.19;5065510;28;20465;-59
2022/10/26 08:11:14;;;;;;;11.77;2.83;;;;;;;13.90;97.11;97502.28;5064051;28;20119;-59
2022/10/26 08:13:41;;;;;;;5.18;1.77;;;;;;;13.90;96.75;97496.81;5065622;28;20103;-59
2022/10/26 08:16:08;;;;;;;7.63;2.92;;;;;;;13.90;96.85;97494.09;5064920;28;20479;-59
2022/10/26 08:18:35;;;;;;;4.10;1.50;;;;;;;13.89;97.20;97488.94;5065065;28;20495;-59
2022/10/26 08:21:08;;;;;;;8.45;2.33;;;;;;;13.88;97.11;97495.47;5065230;28;20127;-59
2022/10/26 08:23:37;;;;;;;8.35;2.15;;;;;;;13.86;97.83;97495.72;5064708;28;20064;-59
2022/10/26 08:26:04;;;;;;;8.60;2.00;;;;;;;13.94;97.28;97490.84;5066542;28;20064;-59
2022/10/26 08:28:30;;;;;;;5.38;1.85;;;;;;;14.00;96.50;97498.75;5069106;28;20047;-58
2022/10/26 08:30:57;;;;;;;4.88;1.60;;;;;;;14.03;96.56;97509.09;5068004;28;20064;-57
2022/10/26 08:33:24;;;;;;;4.45;1.70;;;;;;;14.08;95.87;97511.00;5068819;28;20086;-58
2022/10/26 08:35:55;;;;;;;2.92;1.35;;;;;;;14.15;95.74;97517.00;5068589;28;20052;-58
2022/10/26 08:38:22;;;;;;;4.95;1.67;;;;;;;14.12;95.89;97514.00;5069019;28;20072;-59
2022/10/26 08:40:49;;;;;;;3.90;1.50;;;;;;;14.22;95.19;97519.44;5068253;28;20595;-58
2022/10/26 08:43:33;;;;;;;3.95;1.63;;;;;;;14.16;95.16;97524.06;5069408;28;20086;-59
2022/10/26 08:46:26;;;;;;;5.90;1.92;;;;;;;14.21;95.81;97536.06;5068675;28;20041;-59
2022/10/26 08:49:03;;;;;;;4.28;2.10;;;;;;;14.20;95.47;97539.88;5047270;28;20085;-59
2022/10/26 08:51:36;;;;;;;7.93;1.80;;;;;;;14.25;94.95;97534.41;5048400;28;20501;-58
2022/10/26 08:54:12;;;;;;;5.72;2.08;;;;;;;14.33;95.36;97538.53;5058454;28;20044;-59
2022/10/26 08:56:46;;;;;;;5.93;2.20;;;;;;;14.40;95.31;97536.31;5067954;28;20518;-59
2022/10/26 08:59:40;;;;;;;6.90;2.15;;;;;;;14.47;94.51;97541.50;5068361;28;20056;-59
2022/10/26 09:02:14;;;;;;;7.65;2.35;;;;;;;14.59;94.90;97543.97;5064856;28;20051;-59
2022/10/26 09:04:43;;;;;;;3.58;1.80;;;;;;;14.66;94.68;97544.47;5066574;28;20075;-59
2022/10/26 09:07:21;;;;;;;10.48;2.42;;;;;;;14.73;94.31;97549.66;5065912;28;20044;-59
2022/10/26 09:10:01;;;;;;;5.82;1.60;;;;;;;14.79;94.25;97548.59;5052897;28;20567;-59
2022/10/26 09:12:47;;;;;;;5.28;1.80;;;;;;;14.91;93.86;97559.19;5065968;28;20111;-58
2022/10/26 09:15:26;;;;;;;7.72;1.90;;;;;;;14.92;93.51;97549.91;5065855;28;20132;-59
2022/10/26 09:18:01;;;;;;;4.90;1.80;;;;;;;15.00;93.75;97560.25;5053476;28;20045;-59
2022/10/26 09:21:04;;;;;;;8.77;2.22;;;;;;;15.08;93.83;97567.88;5065117;28;20137;-59
2022/10/26 09:23:53;;;;;;;6.15;2.00;;;;;;;15.16;93.84;97566.50;5066831;28;20044;-58
2022/10/26 09:26:30;;;;;;;9.45;1.85;;;;;;;15.29;93.52;97572.47;5054513;28;20060;-59
2022/10/26 09:29:01;;;;;;;11.05;2.17;;;;;;;15.47;93.40;97573.75;5066015;28;20685;-59
2022/10/26 09:31:31;;;;;;;5.22;2.17;;;;;;;15.67;92.18;97578.31;5065904;28;20577;-59
2022/10/26 09:34:01;;;;;;;8.00;2.40;;;;;;;15.88;90.69;97580.13;5065743;28;20095;-59
2022/10/26 09:36:27;;;;;;;8.63;2.53;;;;;;;16.08;90.72;97584.69;5066495;28;20495;-59
2022/10/26 09:38:56;;;;;;;5.43;1.90;;;;;;;16.23;87.85;97575.56;5061204;28;20050;-59
2022/10/26 09:41:39;;;;;;;3.38;1.48;;;;;;;16.34;85.98;97577.13;5065337;28;20074;-59
2022/10/26 09:44:30;;;;;;;6.00;1.63;;;;;;;16.38;86.25;97571.91;5054454;28;20120;-59
2022/10/26 09:46:57;;;;;;;;;;;;;;;16.41;85.66;97575.97;5066136;28;20044;-58
2022/10/26 09:49:33;;;;;;;8.23;2.00;;;;;;;16.45;85.32;97574.31;5064475;28;19920;-59
2022/10/26 09:51:59;;;;;;;7.90;1.75;;;;;;;16.43;85.15;97571.84;5065579;28;20593;-59
2022/10/26 09:54:26;;;;;;;7.25;1.98;;;;;;;16.45;84.82;97572.41;5064802;28;20038;-59
2022/10/26 09:56:59;;;;;;;4.15;1.90;;;;;;;16.46;84.50;97576.75;5064670;28;20053;-57
2022/10/26 09:59:25;;;;;;;8.68;2.20;;;;;;;16.56;85.19;97585.97;5064986;28;20071;-59
2022/10/26 10:01:52;;;;;;;5.22;1.73;;;;;;;16.68;84.75;97596.53;5064450;28;20051;-59
2022/10/26 10:04:21;;;;;;;8.35;2.03;;;;;;;16.91;83.51;97600.41;5065167;28;20044;-58
2022/10/26 10:07:12;;;;;;;10.90;3.15;;;;;;;17.07;84.17;97605.78;5065020;28;20386;-58
2022/10/26 10:09:38;;;;;;;8.57;2.33;;;;;;;17.15;85.41;97608.69;5065719;28;20047;-58
2022/10/26 10:12:16;;;;;;;7.05;2.30;;;;;;;17.25;83.26;97606.97;5062690;28;20070;-56
2022/10/26 10:14:55;;;;;;;7.40;2.75;;;;;;;17.32;82.84;97601.94;5065319;28;20302;-59
2022/10/26 10:17:22;;;;;;;5.28;2.85;;;;;;;17.44;82.95;97607.03;5062157;28;20406;-59
2022/10/26 10:19:50;;;;;;;8.77;2.03;;;;;;;17.41;82.17;97613.09;5064309;28;20040;-59
2022/10/26 10:22:24;;;;;;;7.18;3.08;;;;;;;17.42;82.42;97620.19;5064564;28;20133;-59
2022/10/26 10:24:59;;;;;;;6.75;1.75;;;;;;;17.42;82.59;97617.44;5063665;28;20052;-59
2022/10/26 10:27:27;;;;;;;5.85;1.88;;;;;;;17.60;81.92;97620.53;5051823;28;20059;-59
2022/10/26 10:29:55;;;;;;;5.93;2.15;;;;;;;17.83;82.09;97626.28;5064277;28;20041;-59
2022/10/26 10:32:30;;;;;;;8.38;1.88;;;;;;;17.84;79.98;97617.75;5063837;28;20052;-57
2022/10/26 10:35:22;;;;;;;6.05;1.88;;;;;;;17.87;79.64;97624.59;5063445;28;20276;-59
2022/10/26 10:37:50;;;;;;;8.13;1.60;;;;;;;17.94;79.22;97619.56;5062466;28;20086;-59
2022/10/26 10:40:22;;;;;;;5.28;1.73;;;;;;;18.18;77.97;97627.75;5064857;28;20032;-59
2022/10/26 10:42:51;;;;;;;7.63;1.60;;;;;;;18.35;75.78;97633.84;5064440;28;20072;-59
2022/10/26 10:45:22;;;;;;;6.80;1.35;;;;;;;18.49;73.81;97642.09;5064619;28;20141;-58
2022/10/26 10:48:01;;;;;;;14.95;1.83;;;;;;;18.53;74.35;97630.25;5064263;28;20123;-59
2022/10/26 10:50:28;;;;;;;5.40;1.77;;;;;;;18.67;73.33;97633.06;5063445;28;20456;-59
2022/10/26 10:53:18;;;;;;;5.00;1.30;;;;;;;18.78;72.25;97633.72;5063782;28;20123;-58
2022/10/26 10:55:57;;;;;;;5.35;1.20;;;;;;;18.81;71.93;97641.34;5064157;28;20051;-59
2022/10/26 10:58:49;;;;;;;6.18;1.80;;;;;;;18.57;71.11;97638.69;5051122;28;20067;-59
2022/10/26 11:01:20;;;;;;;6.82;2.20;;;;;;;18.49;71.28;97647.59;5063626;28;20131;-58
2022/10/26 11:04:03;;;;;;;8.07;1.50;;;;;;;18.56;71.16;97642.56;5063925;28;20060;-59
2022/10/26 11:06:33;;;;;;;5.47;1.10;;;;;;;18.70;71.90;97642.63;5052015;28;20045;-58
2022/10/26 11:09:15;;;;;;;5.32;1.40;;;;;;;18.96;71.75;97639.44;5064126;28;20519;-59
2022/10/26 11:11:47;;;;;;;;;;;;;;;19.19;69.88;97643.19;5064470;28;20044;-59
2022/10/26 11:14:19;;;;;;;8.13;1.40;;;;;;;19.19;70.17;97648.69;5063276;28;20533;-58
2022/10/26 11:16:55;;;;;;;3.67;1.17;;;;;;;19.25;69.03;97641.19;5064257;28;20051;-59
2022/10/26 11:19:28;;;;;;;5.05;1.20;;;;;;;19.03;68.24;97642.63;5063030;28;20072;-59
2022/10/26 11:21:55;;;;;;;5.25;1.60;;;;;;;19.24;69.18;97642.28;5063382;28;20041;-59
2022/10/26 11:24:30;;;;;;;6.45;1.77;;;;;;;19.22;68.23;97647.25;5063110;28;20072;-59
2022/10/26 11:27:03;;;;;;;4.07;1.17;;;;;;;19.17;65.68;97647.34;5064060;28;20522;-59
2022/10/26 11:29:40;;;;;;;5.57;1.75;;;;;;;19.09;66.83;97655.16;5063742;28;20123;-59
2022/10/26 11:32:21;;;;;;;6.05;1.17;;;;;;;19.21;66.95;97651.94;5063372;28;20124;-59
2022/10/26 11:35:17;;;;;;;4.53;1.15;;;;;;;19.23;67.33;97651.63;5064524;28;20070;-57
2022/10/26 11:38:01;;;;;;;7.07;1.20;;;;;;;19.32;67.00;97652.56;5062896;28;20044;-59
2022/10/26 11:40:51;;;;;;;6.20;1.60;;;;;;;19.26;67.18;97650.19;5058204;28;20091;-59
2022/10/26 11:43:29;;;;;;;5.50;1.25;;;;;;;19.34;67.82;97655.00;5061242;28;20052;-59
2022/10/26 11:46:08;;;;;;;6.70;1.38;;;;;;;19.29;66.69;97657.84;5063542;28;20702;-58
2022/10/26 11:48:43;;;;;;;4.38;1.05;;;;;;;19.33;66.67;97654.19;5051025;28;20463;-59
2022/10/26 11:51:20;;;;;;;3.67;1.15;;;;;;;19.29;65.72;97663.34;5062396;28;20090;-57